createdAt,value
2022-08-27T00:02:04.586Z,9.73
2022-08-27T00:04:33.210Z,9.50
2022-08-27T00:07:01.736Z,9.52
2022-08-27T00:09:30.472Z,9.77
2022-08-27T00:11:59.354Z,10.85
2022-08-27T00:14:29.635Z,10.25
2022-08-27T00:16:59.141Z,8.75
2022-08-27T00:19:27.508Z,9.50
2022-08-27T00:21:55.925Z,9.50
2022-08-27T00:24:24.570Z,9.77
2022-08-27T00:26:53.916Z,9.65
2022-08-27T00:29:22.603Z,9.50
2022-08-27T00:31:53.338Z,9.23
2022-08-27T00:34:24.573Z,9.90
2022-08-27T00:36:53.335Z,9.80
2022-08-27T00:39:21.847Z,9.73
2022-08-27T00:41:49.967Z,10.27
2022-08-27T00:44:18.224Z,10.15
2022-08-27T00:46:49.170Z,10.25
2022-08-27T00:49:21.655Z,9.38
2022-08-27T00:51:55.358Z,9.73
2022-08-27T00:54:23.704Z,10.38
2022-08-27T00:56:52.213Z,10.00
2022-08-27T00:59:23.739Z,9.90
2022-08-27T01:02:10.360Z,10.10
2022-08-27T01:04:40.660Z,10.18
2022-08-27T01:07:11.505Z,10.02
2022-08-27T01:09:40.446Z,10.07
2022-08-27T01:12:09.231Z,10.57
2022-08-27T01:14:37.974Z,10.32
2022-08-27T01:17:10.036Z,10.20
2022-08-27T01:19:42.526Z,9.80
2022-08-27T01:22:23.163Z,10.32
2022-08-27T01:24:56.948Z,10.60
2022-08-27T01:27:27.900Z,10.77
2022-08-27T01:29:56.306Z,10.90
2022-08-27T01:32:27.047Z,10.25
2022-08-27T01:34:55.867Z,10.80
2022-08-27T01:37:25.640Z,10.60
2022-08-27T01:39:59.210Z,10.60
2022-08-27T01:42:31.328Z,10.32
2022-08-27T01:45:05.594Z,10.35
2022-08-27T01:47:35.231Z,10.90
2022-08-27T01:50:05.508Z,11.27
2022-08-27T01:52:33.679Z,11.20
2022-08-27T01:55:03.259Z,10.95
2022-08-27T01:57:32.563Z,11.10
2022-08-27T02:00:00.764Z,11.32
2022-08-27T02:02:52.605Z,11.20
2022-08-27T02:05:21.801Z,11.52
2022-08-27T02:07:50.458Z,11.60
2022-08-27T02:10:24.442Z,12.07
2022-08-27T02:12:53.882Z,12.02
2022-08-27T02:15:22.326Z,11.10
2022-08-27T02:17:51.534Z,12.43
2022-08-27T02:20:21.737Z,11.90
2022-08-27T02:22:51.121Z,13.45
2022-08-27T02:25:21.689Z,12.25
2022-08-27T02:27:51.515Z,12.23
2022-08-27T02:30:23.163Z,12.43
2022-08-27T02:32:53.105Z,13.25
2022-08-27T02:35:23.686Z,13.07
2022-08-27T02:37:52.593Z,12.63
2022-08-27T02:40:39.028Z,13.35
2022-08-27T02:43:07.696Z,13.68
2022-08-27T02:45:36.704Z,13.00
2022-08-27T02:48:06.089Z,12.73
2022-08-27T02:50:34.935Z,13.60
2022-08-27T02:53:04.073Z,13.25
2022-08-27T02:55:34.518Z,14.15
2022-08-27T02:58:05.298Z,13.77
2022-08-27T03:00:33.539Z,13.43
2022-08-27T03:03:03.319Z,14.25
2022-08-27T03:05:31.927Z,13.05
2022-08-27T03:08:00.306Z,13.13
2022-08-27T03:10:28.367Z,13.88
2022-08-27T03:12:58.361Z,13.45
2022-08-27T03:15:27.030Z,14.02
2022-08-27T03:18:17.765Z,13.57
2022-08-27T03:20:48.287Z,13.27
2022-08-27T03:23:17.501Z,13.90
2022-08-27T03:25:51.533Z,13.40
2022-08-27T03:28:23.363Z,14.93
2022-08-27T03:30:53.829Z,14.57
2022-08-27T03:33:22.578Z,13.27
2022-08-27T03:36:00.168Z,13.50
2022-08-27T03:38:28.474Z,13.07
2022-08-27T03:40:56.556Z,13.85
2022-08-27T03:43:26.443Z,13.80
2022-08-27T03:46:01.352Z,14.07
2022-08-27T03:48:30.830Z,14.30
2022-08-27T03:50:59.346Z,13.82
2022-08-27T03:53:28.381Z,13.75
2022-08-27T03:55:56.455Z,14.60
2022-08-27T03:58:25.944Z,14.10
2022-08-27T04:00:54.098Z,14.88
2022-08-27T04:03:22.590Z,14.57
2022-08-27T04:05:54.247Z,14.32
2022-08-27T04:08:23.132Z,15.50
2022-08-27T04:11:18.400Z,15.35
2022-08-27T04:13:48.079Z,14.82
2022-08-27T04:16:16.255Z,14.40
2022-08-27T04:18:44.440Z,14.60
2022-08-27T04:21:14.505Z,14.70
2022-08-27T04:23:44.300Z,13.18
2022-08-27T04:26:13.005Z,14.75
2022-08-27T04:28:41.180Z,14.57
2022-08-27T04:31:27.656Z,14.85
2022-08-27T04:33:56.042Z,14.27
2022-08-27T04:36:24.108Z,13.63
2022-08-27T04:38:52.244Z,13.73
2022-08-27T04:41:21.219Z,13.63
2022-08-27T04:43:51.276Z,13.90
2022-08-27T04:46:26.037Z,14.23
2022-08-27T04:48:54.806Z,14.60
2022-08-27T04:51:23.157Z,13.82
2022-08-27T04:53:51.940Z,13.95
2022-08-27T04:56:22.814Z,13.25
2022-08-27T04:58:51.661Z,13.38
2022-08-27T05:01:22.822Z,13.60
2022-08-27T05:03:52.515Z,13.43
2022-08-27T05:06:20.948Z,13.82
2022-08-27T05:08:50.228Z,15.98
2022-08-27T05:11:20.837Z,13.48
2022-08-27T05:13:49.699Z,14.15
2022-08-27T05:16:20.716Z,13.52
2022-08-27T05:18:50.522Z,13.05
2022-08-27T05:21:22.365Z,14.40
2022-08-27T05:23:51.491Z,14.65
2022-08-27T05:26:20.319Z,14.93
2022-08-27T05:28:48.697Z,15.38
2022-08-27T05:31:17.512Z,14.88
2022-08-27T05:33:46.514Z,14.77
2022-08-27T05:36:21.656Z,14.55
2022-08-27T05:38:50.850Z,14.18
2022-08-27T05:41:21.279Z,14.20
2022-08-27T05:43:50.675Z,13.68
2022-08-27T05:46:21.850Z,14.23
2022-08-27T05:48:51.436Z,14.15
2022-08-27T05:51:25.343Z,14.32
2022-08-27T05:53:57.455Z,14.48
2022-08-27T05:56:27.408Z,14.05
2022-08-27T05:59:13.507Z,13.77
2022-08-27T06:01:45.011Z,13.93
2022-08-27T06:04:17.801Z,13.40
2022-08-27T06:06:49.061Z,13.93
2022-08-27T06:09:19.189Z,14.07
2022-08-27T06:11:47.391Z,13.25
2022-08-27T06:14:15.731Z,13.63
2022-08-27T06:16:44.084Z,13.85
2022-08-27T06:19:13.175Z,13.23
2022-08-27T06:21:42.519Z,12.50
2022-08-27T06:24:13.868Z,12.27
2022-08-27T06:26:43.930Z,12.73
2022-08-27T06:29:13.797Z,13.10
2022-08-27T06:31:42.571Z,12.32
2022-08-27T06:34:12.078Z,12.38
2022-08-27T06:36:42.989Z,12.27
2022-08-27T06:39:15.559Z,12.43
2022-08-27T06:41:45.802Z,11.73
2022-08-27T06:44:15.087Z,11.27
2022-08-27T06:46:44.298Z,11.82
2022-08-27T06:49:13.054Z,11.23
2022-08-27T06:51:44.829Z,11.20
2022-08-27T06:54:15.583Z,11.10
2022-08-27T06:56:44.638Z,10.68
2022-08-27T06:59:16.573Z,11.55
2022-08-27T07:01:47.303Z,12.02
2022-08-27T07:04:20.043Z,13.40
2022-08-27T07:06:48.327Z,11.80
2022-08-27T07:09:20.753Z,13.18
2022-08-27T07:11:48.963Z,11.25
2022-08-27T07:14:17.302Z,11.55
2022-08-27T07:16:45.651Z,11.50
2022-08-27T07:19:16.342Z,10.48
2022-08-27T07:21:45.564Z,10.68
2022-08-27T07:24:14.073Z,11.55
2022-08-27T07:26:45.045Z,11.13
2022-08-27T07:29:15.669Z,10.73
2022-08-27T07:31:44.387Z,11.70
2022-08-27T07:34:12.629Z,10.60
2022-08-27T07:36:41.267Z,11.20
2022-08-27T07:39:10.021Z,10.90
2022-08-27T07:41:59.391Z,10.98
2022-08-27T07:44:34.174Z,11.13
2022-08-27T07:47:03.257Z,11.05
2022-08-27T07:49:35.082Z,10.70
2022-08-27T07:52:03.649Z,10.57
2022-08-27T07:54:31.792Z,10.10
2022-08-27T07:57:00.237Z,9.90
2022-08-27T07:59:29.759Z,10.30
2022-08-27T08:01:58.167Z,9.55
2022-08-27T08:04:27.350Z,10.32
2022-08-27T08:06:56.570Z,9.85
2022-08-27T08:09:25.585Z,9.82
2022-08-27T08:11:54.765Z,9.40
2022-08-27T08:14:23.609Z,9.55
2022-08-27T08:16:53.089Z,9.18
2022-08-27T08:19:21.269Z,9.88
2022-08-27T08:21:49.808Z,10.65
2022-08-27T08:24:20.381Z,10.68
2022-08-27T08:26:48.889Z,10.02
2022-08-27T08:29:18.211Z,10.98
2022-08-27T08:31:50.293Z,10.10
2022-08-27T08:34:20.710Z,11.40
2022-08-27T08:36:54.716Z,10.13
2022-08-27T08:39:24.467Z,9.63
2022-08-27T08:41:55.577Z,10.43
2022-08-27T08:44:32.520Z,10.07
2022-08-27T08:47:05.301Z,9.93
2022-08-27T08:49:40.302Z,9.90
2022-08-27T08:52:26.974Z,9.82
2022-08-27T08:55:10.116Z,11.98
2022-08-27T08:57:44.855Z,10.32
2022-08-27T09:00:14.805Z,10.93
2022-08-27T09:02:50.558Z,10.40
2022-08-27T09:05:20.210Z,10.57
2022-08-27T09:08:28.407Z,9.82
2022-08-27T09:10:58.996Z,9.70
2022-08-27T09:13:30.918Z,10.18
2022-08-27T09:16:02.143Z,10.20
2022-08-27T09:18:31.524Z,9.77
2022-08-27T09:21:09.973Z,10.27
2022-08-27T09:23:44.562Z,10.07
2022-08-27T09:26:20.359Z,10.40
2022-08-27T09:29:11.200Z,9.82
2022-08-27T09:31:41.027Z,9.77
2022-08-27T09:34:09.531Z,9.63
2022-08-27T09:36:51.028Z,10.95
2022-08-27T09:39:19.355Z,12.00
2022-08-27T09:41:49.667Z,10.00
2022-08-27T09:44:20.087Z,10.50
2022-08-27T09:47:00.374Z,9.80
2022-08-27T09:49:28.783Z,11.13
2022-08-27T09:51:59.536Z,10.07
2022-08-27T09:54:43.531Z,11.27
2022-08-27T09:57:14.618Z,11.50
2022-08-27T09:59:52.643Z,10.68
2022-08-27T10:02:24.486Z,11.32
2022-08-27T10:04:54.737Z,11.68
2022-08-27T10:07:32.460Z,11.20
2022-08-27T10:10:08.052Z,10.15
2022-08-27T10:12:45.840Z,11.13
2022-08-27T10:15:15.868Z,10.02
2022-08-27T10:17:53.228Z,10.13
2022-08-27T10:20:30.242Z,11.60
2022-08-27T10:23:11.017Z,9.98
2022-08-27T10:25:46.237Z,10.13
2022-08-27T10:28:27.476Z,9.90
2022-08-27T10:31:09.548Z,9.60
2022-08-27T10:33:43.643Z,9.60
2022-08-27T10:36:22.994Z,10.02
2022-08-27T10:39:03.899Z,9.93
2022-08-27T10:41:36.524Z,9.43
2022-08-27T10:44:46.335Z,9.57
2022-08-27T10:47:33.503Z,8.20
2022-08-27T10:50:07.073Z,8.88
2022-08-27T10:52:40.580Z,8.75
2022-08-27T10:55:15.479Z,8.05
2022-08-27T10:58:03.098Z,8.82
2022-08-27T11:00:40.182Z,8.38
2022-08-27T11:03:13.874Z,9.48
2022-08-27T11:05:46.388Z,9.60
2022-08-27T11:08:20.351Z,9.70
2022-08-27T11:10:53.743Z,9.05
2022-08-27T11:13:34.137Z,9.80
2022-08-27T11:16:07.399Z,9.55
2022-08-27T11:18:43.657Z,9.65
2022-08-27T11:21:17.941Z,10.00
2022-08-27T11:23:49.693Z,10.25
2022-08-27T11:26:19.210Z,10.70
2022-08-27T11:28:51.580Z,10.52
2022-08-27T11:31:25.284Z,10.27
2022-08-27T11:34:01.193Z,10.32
2022-08-27T11:36:57.140Z,10.27
2022-08-27T11:39:51.137Z,10.77
2022-08-27T11:42:36.165Z,11.43
2022-08-27T11:45:09.055Z,11.00
2022-08-27T11:47:38.792Z,10.98
2022-08-27T11:50:17.412Z,11.05
2022-08-27T11:52:59.233Z,10.82
2022-08-27T11:55:31.782Z,9.82
2022-08-27T11:58:26.064Z,10.55
2022-08-27T12:00:54.844Z,10.38
2022-08-27T12:03:31.696Z,10.43
2022-08-27T12:06:19.044Z,10.88
2022-08-27T12:08:47.269Z,10.82
2022-08-27T12:11:37.758Z,10.88
2022-08-27T12:14:18.191Z,10.85
2022-08-27T12:16:57.106Z,10.38
2022-08-27T12:19:34.133Z,10.10
2022-08-27T12:22:14.214Z,10.15
2022-08-27T12:24:51.943Z,10.35
2022-08-27T12:27:32.447Z,10.27
2022-08-27T12:30:08.317Z,11.52
2022-08-27T12:32:41.021Z,10.80
2022-08-27T12:35:13.205Z,10.90
2022-08-27T12:37:48.654Z,10.82
2022-08-27T12:40:24.556Z,10.35
2022-08-27T12:43:04.752Z,11.05
2022-08-27T12:45:35.703Z,10.80
2022-08-27T12:48:04.614Z,11.15
2022-08-27T12:50:32.819Z,11.73
2022-08-27T12:53:15.267Z,11.07
2022-08-27T12:56:01.373Z,12.60
2022-08-27T12:58:42.668Z,11.65
2022-08-27T13:01:26.039Z,12.25
2022-08-27T13:03:55.948Z,12.77
2022-08-27T13:06:29.172Z,10.60
2022-08-27T13:09:00.186Z,10.88
2022-08-27T13:11:31.059Z,11.85
2022-08-27T13:14:10.507Z,11.88
2022-08-27T13:16:48.653Z,11.73
2022-08-27T13:19:22.702Z,11.45
2022-08-27T13:21:52.125Z,10.45
2022-08-27T13:24:27.657Z,10.77
2022-08-27T13:26:57.390Z,10.45
2022-08-27T13:29:26.717Z,10.73
2022-08-27T13:31:56.477Z,11.10
2022-08-27T13:34:27.475Z,10.38
2022-08-27T13:36:59.649Z,9.77
2022-08-27T13:39:28.958Z,11.25
2022-08-27T13:42:00.623Z,10.73
2022-08-27T13:44:38.718Z,11.27
2022-08-27T13:47:11.574Z,11.10
2022-08-27T13:49:40.536Z,10.05
2022-08-27T13:52:17.499Z,10.05
2022-08-27T13:54:46.425Z,10.05
2022-08-27T13:57:25.532Z,10.07
2022-08-27T13:59:53.948Z,10.00
2022-08-27T14:02:28.668Z,9.80
2022-08-27T14:05:11.412Z,8.95
2022-08-27T14:07:46.483Z,10.00
2022-08-27T14:10:33.507Z,9.90
2022-08-27T14:13:04.338Z,8.95
2022-08-27T14:15:36.015Z,9.77
2022-08-27T14:18:07.579Z,9.73
2022-08-27T14:20:37.033Z,9.27
2022-08-27T14:23:05.696Z,9.40
2022-08-27T14:25:34.663Z,9.00
2022-08-27T14:28:03.175Z,10.35
2022-08-27T14:30:31.513Z,9.48
2022-08-27T14:33:00.861Z,9.00
2022-08-27T14:35:34.178Z,8.98
2022-08-27T14:38:08.201Z,8.60
2022-08-27T14:40:36.446Z,8.07
2022-08-27T14:43:05.468Z,8.30
2022-08-27T14:45:38.339Z,7.70
2022-08-27T14:48:08.212Z,7.50
2022-08-27T14:50:48.245Z,7.30
2022-08-27T14:53:17.519Z,7.25
2022-08-27T14:55:46.885Z,7.57
2022-08-27T14:58:20.486Z,9.50
2022-08-27T15:00:48.935Z,8.93
2022-08-27T15:03:18.572Z,7.22
2022-08-27T15:05:48.068Z,6.95
2022-08-27T15:08:17.227Z,7.15
2022-08-27T15:10:45.813Z,7.10
2022-08-27T15:13:14.071Z,8.18
2022-08-27T15:15:42.494Z,9.68
2022-08-27T15:18:11.347Z,8.02
2022-08-27T15:20:41.153Z,7.70
2022-08-27T15:23:13.659Z,8.25
2022-08-27T15:25:42.616Z,8.70
2022-08-27T15:28:10.872Z,8.40
2022-08-27T15:30:39.344Z,6.88
2022-08-27T15:33:08.076Z,7.55
2022-08-27T15:35:36.673Z,7.18
2022-08-27T15:38:05.119Z,6.95
2022-08-27T15:40:36.817Z,7.07
2022-08-27T15:43:07.534Z,6.20
2022-08-27T15:45:36.777Z,7.55
2022-08-27T15:48:05.537Z,6.70
2022-08-27T15:50:34.246Z,6.95
2022-08-27T15:53:05.329Z,7.25
2022-08-27T15:55:37.738Z,7.00
2022-08-27T15:58:06.667Z,7.00
2022-08-27T16:00:36.874Z,7.10
2022-08-27T16:03:09.307Z,7.35
2022-08-27T16:05:39.795Z,7.45
2022-08-27T16:08:08.501Z,6.72
2022-08-27T16:10:38.276Z,7.32
2022-08-27T16:13:06.311Z,6.68
2022-08-27T16:15:38.288Z,6.75
2022-08-27T16:18:07.129Z,6.50
2022-08-27T16:20:35.349Z,6.97
2022-08-27T16:23:03.611Z,7.10
2022-08-27T16:25:31.835Z,7.38
2022-08-27T16:28:01.760Z,7.20
2022-08-27T16:30:29.988Z,7.07
2022-08-27T16:32:58.704Z,7.15
2022-08-27T16:35:26.805Z,7.30
2022-08-27T16:37:54.911Z,7.20
2022-08-27T16:40:23.370Z,7.00
2022-08-27T16:42:52.886Z,6.72
2022-08-27T16:45:24.140Z,7.03
2022-08-27T16:48:10.616Z,6.65
2022-08-27T16:50:39.793Z,7.10
2022-08-27T16:53:13.238Z,5.55
2022-08-27T16:55:50.999Z,7.13
2022-08-27T16:58:35.311Z,6.32
2022-08-27T17:01:08.280Z,7.15
2022-08-27T17:04:05.040Z,6.43
2022-08-27T17:06:31.077Z,6.40
2022-08-27T17:08:59.971Z,6.35
2022-08-27T17:11:30.774Z,6.25
2022-08-27T17:14:03.008Z,6.57
2022-08-27T17:16:36.800Z,6.18
2022-08-27T17:19:07.010Z,7.13
2022-08-27T17:21:37.132Z,6.80
2022-08-27T17:24:12.175Z,6.47
2022-08-27T17:26:43.028Z,6.00
2022-08-27T17:29:11.154Z,5.93
2022-08-27T17:31:43.625Z,5.75
2022-08-27T17:34:16.488Z,5.80
2022-08-27T17:36:45.511Z,6.13
2022-08-27T17:39:13.953Z,6.00
2022-08-27T17:41:43.737Z,6.60
2022-08-27T17:44:17.971Z,5.93
2022-08-27T17:46:47.675Z,6.00
2022-08-27T17:49:16.901Z,5.80
2022-08-27T17:51:45.371Z,5.60
2022-08-27T17:54:27.691Z,4.97
2022-08-27T17:56:56.085Z,6.75
2022-08-27T17:59:24.351Z,6.10
2022-08-27T18:01:54.417Z,5.78
2022-08-27T18:04:23.035Z,5.60
2022-08-27T18:06:51.145Z,5.38
2022-08-27T18:09:19.275Z,4.97
2022-08-27T18:11:48.286Z,5.30
2022-08-27T18:14:18.579Z,4.65
2022-08-27T18:16:47.369Z,4.32
2022-08-27T18:19:17.023Z,5.10
2022-08-27T18:21:46.654Z,4.60
2022-08-27T18:24:16.042Z,4.60
2022-08-27T18:26:45.222Z,4.70
2022-08-27T18:29:15.420Z,4.45
2022-08-27T18:31:46.605Z,4.55
2022-08-27T18:34:26.518Z,4.95
2022-08-27T18:36:54.737Z,4.63
2022-08-27T18:39:25.728Z,5.20
2022-08-27T18:41:57.088Z,5.25
2022-08-27T18:44:25.760Z,4.47
2022-08-27T18:46:54.410Z,4.80
2022-08-27T18:49:25.862Z,5.38
2022-08-27T18:51:54.735Z,4.75
2022-08-27T18:54:24.422Z,4.90
2022-08-27T18:56:52.492Z,5.00
2022-08-27T18:59:25.621Z,4.93
2022-08-27T19:01:53.953Z,5.35
2022-08-27T19:04:24.711Z,4.75
2022-08-27T19:06:52.878Z,4.82
2022-08-27T19:09:21.280Z,5.95
2022-08-27T19:11:51.579Z,5.82
2022-08-27T19:14:19.668Z,7.07
2022-08-27T19:16:54.224Z,10.38
2022-08-27T19:19:25.446Z,7.72
2022-08-27T19:21:53.898Z,6.70
2022-08-27T19:24:24.910Z,5.50
2022-08-27T19:26:54.700Z,5.03
2022-08-27T19:29:27.675Z,4.78
2022-08-27T19:31:55.891Z,4.70
2022-08-27T19:34:25.336Z,5.43
2022-08-27T19:36:53.450Z,5.00
2022-08-27T19:39:21.539Z,5.43
2022-08-27T19:41:49.679Z,5.00
2022-08-27T19:44:17.724Z,5.63
2022-08-27T19:46:46.215Z,5.75
2022-08-27T19:49:14.261Z,6.00
2022-08-27T19:51:43.813Z,5.50
2022-08-27T19:54:11.885Z,9.80
2022-08-27T19:56:40.015Z,8.23
2022-08-27T19:59:20.367Z,6.22
2022-08-27T20:01:50.045Z,9.05
2022-08-27T20:04:18.119Z,6.80
2022-08-27T20:06:47.904Z,6.60
2022-08-27T20:09:18.042Z,5.80
2022-08-27T20:11:47.592Z,6.10
2022-08-27T20:14:15.595Z,5.85
2022-08-27T20:16:46.095Z,6.22
2022-08-27T20:19:15.584Z,6.45
2022-08-27T20:21:43.770Z,5.93
2022-08-27T20:24:13.265Z,5.80
2022-08-27T20:26:42.589Z,5.35
2022-08-27T20:29:11.775Z,6.35
2022-08-27T20:31:43.409Z,6.25
2022-08-27T20:34:11.475Z,6.80
2022-08-27T20:36:39.883Z,6.70
2022-08-27T20:39:08.581Z,7.53
2022-08-27T20:41:38.097Z,8.20
2022-08-27T20:44:07.786Z,9.18
2022-08-27T20:46:36.582Z,13.57
2022-08-27T20:49:06.054Z,8.18
2022-08-27T20:52:02.172Z,7.47
2022-08-27T20:54:25.258Z,7.38
2022-08-27T20:56:54.724Z,7.68
2022-08-27T20:59:40.572Z,7.70
2022-08-27T21:02:10.789Z,7.68
2022-08-27T21:04:40.611Z,8.00
2022-08-27T21:07:08.831Z,7.43
2022-08-27T21:09:44.886Z,7.18
2022-08-27T21:12:26.998Z,7.50
2022-08-27T21:14:56.485Z,7.57
2022-08-27T21:17:26.246Z,7.25
2022-08-27T21:19:54.482Z,7.43
2022-08-27T21:22:22.974Z,7.57
2022-08-27T21:24:51.439Z,7.57
2022-08-27T21:27:22.423Z,7.72
2022-08-27T21:30:29.318Z,7.38
2022-08-27T21:32:57.694Z,7.03
2022-08-27T21:35:27.556Z,7.88
2022-08-27T21:37:56.455Z,7.38
2022-08-27T21:40:25.335Z,8.43
2022-08-27T21:42:53.982Z,14.73
2022-08-27T21:45:23.842Z,9.18
2022-08-27T21:47:54.242Z,9.35
2022-08-27T21:50:23.421Z,13.65
2022-08-27T21:52:51.873Z,9.98
2022-08-27T21:55:20.354Z,7.80
2022-08-27T21:57:49.116Z,8.02
2022-08-27T22:00:38.334Z,7.53
2022-08-27T22:03:10.663Z,8.90
2022-08-27T22:05:41.247Z,7.57
2022-08-27T22:08:10.689Z,6.88
2022-08-27T22:10:40.231Z,7.65
2022-08-27T22:13:08.650Z,7.30
2022-08-27T22:15:37.076Z,7.35
2022-08-27T22:18:08.422Z,7.15
2022-08-27T22:20:37.156Z,7.50
2022-08-27T22:23:06.139Z,7.32
2022-08-27T22:25:34.441Z,7.60
2022-08-27T22:28:02.820Z,7.03
2022-08-27T22:30:31.555Z,7.55
2022-08-27T22:32:59.578Z,8.88
2022-08-27T22:35:29.485Z,7.97
2022-08-27T22:37:57.692Z,9.85
2022-08-27T22:40:28.491Z,9.85
2022-08-27T22:42:57.272Z,9.50
2022-08-27T22:45:27.128Z,7.72
2022-08-27T22:47:55.378Z,7.50
2022-08-27T22:50:24.504Z,8.30
2022-08-27T22:52:54.288Z,7.70
2022-08-27T22:55:24.188Z,7.18
2022-08-27T22:57:54.040Z,7.70
2022-08-27T23:00:24.516Z,7.90
2022-08-27T23:02:52.774Z,7.30
2022-08-27T23:05:21.451Z,7.00
2022-08-27T23:07:49.890Z,7.80
2022-08-27T23:10:21.205Z,8.18
2022-08-27T23:12:49.881Z,7.38
2022-08-27T23:15:19.332Z,7.95
2022-08-27T23:17:47.578Z,7.63
2022-08-27T23:20:16.641Z,7.65
2022-08-27T23:22:45.694Z,7.63
2022-08-27T23:25:31.396Z,7.47
2022-08-27T23:28:03.710Z,7.18
2022-08-27T23:30:35.569Z,7.70
2022-08-27T23:33:03.640Z,7.30
2022-08-27T23:35:31.924Z,8.50
2022-08-27T23:38:00.274Z,6.80
2022-08-27T23:40:28.410Z,7.68
2022-08-27T23:42:56.496Z,7.47
2022-08-27T23:45:30.678Z,6.82
2022-08-27T23:47:58.776Z,7.18
2022-08-27T23:50:34.173Z,7.55
2022-08-27T23:53:02.901Z,6.72
2022-08-27T23:55:31.007Z,7.63
2022-08-27T23:58:00.313Z,7.15
